Time;durP1;ratioP1;P1;durP2;ratioP2;P2;SDS_P1;SDS_P2;PMS_P1;PMS_P2;Temp;Humidity;BMP_temperature;BMP_pressure;BME280_temperature;BME280_humidity;BME280_pressure;Samples;Min_cycle;Max_cycle;Signal;HPM_P1;HPM_P2
2023/04/30 18:49:28;;;;;;;;;6.00;6.00;;;;;19.73;38.00;101267.69;4998011;28;45745;-38
2023/04/30 18:51:54;;;;;;;;;8.25;8.00;;;;;19.72;38.17;101260.72;5002067;28;46369;-41
2023/04/30 18:54:19;;;;;;;;;9.00;8.00;;;;;19.75;37.94;101270.25;4997369;28;45303;-39
2023/04/30 18:56:45;;;;;;;;;8.75;8.00;;;;;19.76;38.13;101264.94;4998592;28;45671;-41
2023/04/30 18:59:11;;;;;;;;;7.00;7.00;;;;;19.77;38.17;101265.78;4997086;28;45658;-39
2023/04/30 19:01:36;;;;;;;;;6.50;6.50;;;;;19.78;37.99;101272.75;5004658;28;45252;-41
2023/04/30 19:04:02;;;;;;;;;6.00;6.00;;;;;19.80;38.32;101278.78;5015132;28;45379;-42
2023/04/30 19:06:27;;;;;;;;;7.75;6.75;;;;;19.81;37.92;101277.00;5003170;28;45224;-41
2023/04/30 19:08:54;;;;;;;;;9.00;7.00;;;;;19.80;37.76;101272.66;5001640;28;45990;-41
2023/04/30 19:11:20;;;;;;;;;6.50;5.00;;;;;19.81;38.17;101277.88;5000533;28;45178;-41
2023/04/30 19:13:45;;;;;;;;;6.50;6.50;;;;;19.75;37.88;101268.47;5003014;28;45977;-40
2023/04/30 19:16:11;;;;;;;;;5.50;5.50;;;;;19.81;37.90;101284.88;5006699;28;45954;-42
2023/04/30 19:18:37;;;;;;;;;7.50;6.00;;;;;19.81;37.84;101282.25;5005905;28;55871;-39
2023/04/30 19:21:04;;;;;;;;;9.00;7.00;;;;;19.81;38.19;101287.53;4997042;28;45387;-41
2023/04/30 19:23:30;;;;;;;;;7.00;7.00;;;;;19.81;38.59;101280.50;4997738;28;45329;-40
2023/04/30 19:25:56;;;;;;;;;7.00;7.00;;;;;19.82;38.65;101292.72;4999579;28;45544;-42
2023/04/30 19:28:22;;;;;;;;;9.00;8.50;;;;;19.82;38.43;101289.22;5005380;28;45318;-42
2023/04/30 19:30:54;;;;;;;;;6.00;5.50;;;;;19.83;38.29;101290.94;5013872;28;45210;-40
2023/04/30 19:33:20;;;;;;;;;9.00;7.00;;;;;19.82;38.37;101284.84;5003143;28;45356;-41
2023/04/30 19:35:53;;;;;;;;;6.75;6.00;;;;;19.83;38.16;101290.94;5002750;28;45324;-40
2023/04/30 19:38:19;;;;;;;;;7.25;5.75;;;;;19.81;38.16;101290.16;5004089;28;47416;-40
2023/04/30 19:40:48;;;;;;;;;6.00;6.00;;;;;19.83;38.18;101289.19;5007473;28;45350;-42
2023/04/30 19:43:15;;;;;;;;;6.50;6.50;;;;;19.82;38.05;101291.84;5009433;28;44635;-40
2023/04/30 19:45:58;;;;;;;;;7.25;6.75;;;;;19.82;38.46;101291.84;5007934;28;45509;-42
2023/04/30 19:48:24;;;;;;;;;6.25;5.25;;;;;19.83;38.45;101298.84;5008791;28;45794;-40
2023/04/30 19:50:54;;;;;;;;;6.50;6.50;;;;;19.84;38.35;101300.53;5000786;28;45201;-40
2023/04/30 19:53:21;;;;;;;;;6.00;5.25;;;;;19.80;38.48;101291.94;5001073;28;45341;-41
2023/04/30 19:55:46;;;;;;;;;7.25;6.25;;;;;19.84;38.22;101300.53;5004894;28;45052;-41
2023/04/30 19:58:12;;;;;;;;;6.25;6.25;;;;;19.83;38.42;101298.84;5005662;28;46039;-40
2023/04/30 20:00:43;;;;;;;;;5.75;5.25;;;;;19.83;38.77;101304.97;5005826;28;45254;-41
2023/04/30 20:03:09;;;;;;;;;7.00;7.00;;;;;19.85;38.41;101307.50;5003337;28;45436;-42
2023/04/30 20:05:38;;;;;;;;;6.50;6.50;;;;;19.85;38.38;101320.66;4998799;28;45264;-41
2023/04/30 20:08:05;;;;;;;;;6.25;6.25;;;;;19.85;39.08;101320.66;4998435;28;46851;-40
2023/04/30 20:10:32;;;;;;;;;6.00;6.00;;;;;19.85;38.97;101315.41;5007546;28;45324;-40
2023/04/30 20:12:58;;;;;;;;;9.00;6.00;;;;;19.83;38.78;101309.34;5005704;28;45411;-41
2023/04/30 20:15:23;;;;;;;;;7.25;6.00;;;;;19.83;38.19;101315.47;5001474;28;45386;-41
2023/04/30 20:17:50;;;;;;;;;8.50;7.00;;;;;19.84;38.46;101314.56;5002385;28;46485;-41
2023/04/30 20:20:16;;;;;;;;;5.50;5.25;;;;;19.87;38.57;101316.22;5023765;28;45788;-42
2023/04/30 20:22:41;;;;;;;;;5.00;5.00;;;;;19.86;38.47;101314.50;5009269;28;45474;-41
2023/04/30 20:25:07;;;;;;;;;6.25;6.25;;;;;19.88;38.69;101317.94;5013394;28;45218;-41
2023/04/30 20:27:33;;;;;;;;;6.00;6.00;;;;;19.86;38.83;101317.16;5009876;28;45650;-44
2023/04/30 20:29:59;;;;;;;;;8.50;7.00;;;;;19.84;38.43;101322.47;5017229;28;44699;-37
2023/04/30 20:32:24;;;;;;;;;9.75;6.00;;;;;19.87;38.51;101321.50;5004845;28;45313;-38
2023/04/30 20:34:50;;;;;;;;;6.00;6.00;;;;;19.86;38.51;101325.03;5001867;28;52107;-41
2023/04/30 20:37:15;;;;;;;;;8.00;6.50;;;;;19.87;38.74;101321.50;4999453;28;46403;-40
2023/04/30 20:39:41;;;;;;;;;5.00;5.00;;;;;19.87;38.81;101326.75;4999558;28;66571;-41
2023/04/30 20:42:07;;;;;;;;;6.50;6.50;;;;;19.87;38.70;101321.50;5000821;28;45454;-40
2023/04/30 20:44:32;;;;;;;;;5.50;5.50;;;;;19.85;38.48;101323.28;5001145;28;46002;-41
2023/04/30 20:46:58;;;;;;;;;7.00;7.00;;;;;19.87;38.89;101327.59;5000567;28;45387;-42
2023/04/30 20:49:25;;;;;;;;;6.75;6.75;;;;;19.84;38.89;101322.47;5000330;28;54893;-40
2023/04/30 20:51:51;;;;;;;;;7.00;7.00;;;;;19.87;39.03;101327.59;5009171;28;45351;-41
2023/04/30 20:54:16;;;;;;;;;6.50;4.50;;;;;19.88;38.60;101323.19;5013889;28;45341;-42
2023/04/30 20:56:43;;;;;;;;;4.50;4.50;;;;;19.87;38.89;101324.13;5014602;28;53193;-39
2023/04/30 20:59:09;;;;;;;;;8.00;5.25;;;;;19.87;38.95;101321.50;5007428;28;45513;-41
2023/04/30 21:01:34;;;;;;;;;7.50;6.00;;;;;19.87;38.98;101319.69;5003775;28;45253;-41
2023/04/30 21:04:00;;;;;;;;;8.00;7.00;;;;;19.87;39.08;101330.22;5009846;28;45707;-43
2023/04/30 21:06:26;;;;;;;;;4.75;4.75;;;;;19.88;38.97;101323.19;5004016;28;46127;-42
2023/04/30 21:08:52;;;;;;;;;5.50;5.50;;;;;19.83;38.90;101315.47;4999550;28;45499;-42
2023/04/30 21:11:18;;;;;;;;;5.50;4.00;;;;;19.86;39.11;101317.16;4999766;28;45904;-42
2023/04/30 21:13:43;;;;;;;;;6.50;6.25;;;;;19.88;38.80;101312.69;4999734;28;45530;-41
2023/04/30 21:16:09;;;;;;;;;6.25;6.25;;;;;19.87;38.68;101313.59;4999314;28;46248;-42
2023/04/30 21:18:34;;;;;;;;;10.33;7.67;;;;;19.88;38.73;101312.69;5007655;28;52003;-40
2023/04/30 21:21:03;;;;;;;;;6.00;6.00;;;;;19.88;39.11;101313.50;5013339;28;45302;-43
2023/04/30 21:23:29;;;;;;;;;7.25;6.00;;;;;19.86;38.82;101304.00;4999920;28;45254;-42
2023/04/30 21:25:55;;;;;;;;;6.75;5.75;;;;;19.87;38.81;101303.91;5000379;28;46418;-42
2023/04/30 21:28:20;;;;;;;;;7.25;7.25;;;;;19.87;39.21;101301.28;5016383;28;45289;-43
2023/04/30 21:30:45;;;;;;;;;6.25;6.25;;;;;19.89;38.79;101298.59;5024476;28;44633;-45
2023/04/30 21:33:11;;;;;;;;;5.00;5.00;;;;;19.88;38.84;101291.63;5013690;28;45266;-49
2023/04/30 21:35:36;;;;;;;;;2.00;1.00;;;;;19.88;39.16;101287.22;5000301;28;46605;-48
2023/04/30 21:38:01;;;;;;;;;5.50;5.50;;;;;19.87;38.98;101289.94;5000026;28;52601;-48
2023/04/30 21:40:32;;;;;;;;;5.25;5.25;;;;;19.89;39.33;101288.09;5002790;28;45607;-45
2023/04/30 21:42:58;;;;;;;;;5.75;5.00;;;;;19.88;38.68;101278.47;5002289;28;45225;-40
2023/04/30 21:45:23;;;;;;;;;5.75;5.75;;;;;19.89;38.62;101282.81;5001594;28;45379;-46
2023/04/30 21:47:48;;;;;;;;;6.75;5.75;;;;;19.87;39.15;101277.59;5002814;28;45158;-42
2023/04/30 21:50:14;;;;;;;;;6.75;6.75;;;;;19.89;39.26;101282.81;5004057;28;45183;-49
2023/04/30 21:52:39;;;;;;;;;8.00;6.25;;;;;19.86;39.10;101281.16;4999607;28;45502;-46
2023/04/30 21:55:06;;;;;;;;;6.25;6.25;;;;;19.87;38.76;101274.13;4999495;28;46030;-46
2023/04/30 21:57:31;;;;;;;;;6.00;6.00;;;;;19.85;38.92;101265.44;4999406;28;45794;-46
2023/04/30 21:59:58;;;;;;;;;7.00;6.00;;;;;19.87;39.01;101266.25;4999345;28;45412;-44
2023/04/30 22:02:24;;;;;;;;;5.25;5.25;;;;;19.87;39.08;101274.13;4999286;28;45310;-46
2023/04/30 22:04:49;;;;;;;;;6.75;6.75;;;;;19.87;39.33;101266.25;4999016;28;46950;-45
2023/04/30 22:07:14;;;;;;;;;8.00;6.00;;;;;19.87;38.83;101266.25;5001956;28;45320;-48
2023/04/30 22:09:40;;;;;;;;;8.00;6.00;;;;;19.86;39.25;101268.00;5010731;28;45260;-50
2023/04/30 22:12:07;;;;;;;;;9.00;8.00;;;;;19.86;39.15;101265.38;5008723;28;44889;-43
2023/04/30 22:14:32;;;;;;;;;8.75;6.25;;;;;19.86;39.24;101267.16;5006837;28;45247;-48
2023/04/30 22:16:57;;;;;;;;;7.50;6.50;;;;;19.85;38.72;101260.16;5010176;28;45324;-50
2023/04/30 22:19:23;;;;;;;;;6.00;6.00;;;;;19.85;39.30;101262.78;5009605;28;46702;-48
2023/04/30 22:21:48;;;;;;;;;6.00;6.00;;;;;19.87;39.10;101266.25;5011322;28;45257;-46
2023/04/30 22:24:14;;;;;;;;;6.50;6.00;;;;;19.85;39.32;101260.16;5002944;28;51896;-47
2023/04/30 22:26:39;;;;;;;;;10.00;7.50;;;;;19.85;38.81;101262.78;5023762;28;45262;-46
2023/04/30 22:29:05;;;;;;;;;6.00;6.00;;;;;19.86;39.44;101261.91;5015782;28;45334;-46
2023/04/30 22:31:30;;;;;;;;;6.50;6.00;;;;;19.86;39.04;101256.66;5022917;28;44842;-46
2023/04/30 22:33:55;;;;;;;;;7.00;6.00;;;;;19.83;39.14;101256.75;5014447;28;46050;-48
2023/04/30 22:36:21;;;;;;;;;8.00;6.67;;;;;19.85;38.89;101261.00;5023620;28;49650;-43
2023/04/30 22:38:47;;;;;;;;;6.50;6.50;;;;;19.84;39.10;101261.97;5014187;28;45316;-38
2023/04/30 22:41:12;;;;;;;;;5.33;5.33;;;;;19.84;38.96;101253.19;5013816;28;45577;-42
2023/04/30 22:43:37;;;;;;;;;6.25;5.50;;;;;19.86;39.00;101265.38;5021187;28;46021;-40
2023/04/30 22:46:03;;;;;;;;;8.00;7.00;;;;;19.85;39.37;101266.28;5026294;28;44769;-45
2023/04/30 22:48:28;;;;;;;;;8.75;6.00;;;;;19.85;38.77;101265.44;5026418;28;44730;-46
2023/04/30 22:50:55;;;;;;;;;6.75;6.00;;;;;19.84;38.77;101259.31;5023086;28;45240;-45
2023/04/30 22:53:20;;;;;;;;;7.00;6.25;;;;;19.86;38.75;101264.53;5023480;28;45348;-47
2023/04/30 22:55:46;;;;;;;;;8.25;5.50;;;;;19.85;39.10;101260.16;5018311;28;44739;-48
2023/04/30 22:58:12;;;;;;;;;6.00;6.00;;;;;19.85;39.14;101268.91;5012188;28;44804;-48
2023/04/30 23:00:37;;;;;;;;;7.25;5.75;;;;;19.85;38.79;101266.28;5004971;28;45195;-46
2023/04/30 23:03:02;;;;;;;;;6.00;6.00;;;;;19.86;39.38;101267.16;5000723;28;45980;-46
2023/04/30 23:05:28;;;;;;;;;7.00;7.00;;;;;19.85;39.39;101254.91;4998390;28;45907;-45
2023/04/30 23:07:53;;;;;;;;;7.00;7.00;;;;;19.84;39.04;101258.47;5012196;28;44698;-46
2023/04/30 23:10:18;;;;;;;;;8.33;7.00;;;;;19.86;39.03;101268.00;4998528;28;46630;-45
2023/04/30 23:12:43;;;;;;;;;7.75;7.00;;;;;19.86;38.82;101261.91;4998356;28;46007;-41
2023/04/30 23:15:09;;;;;;;;;7.67;6.33;;;;;19.85;39.36;101253.13;4996843;28;65600;-44
2023/04/30 23:17:35;;;;;;;;;8.00;7.00;;;;;19.85;39.22;101252.28;4998804;28;45337;-48
2023/04/30 23:20:00;;;;;;;;;7.25;6.75;;;;;19.86;39.01;101251.38;4999324;28;45647;-48
2023/04/30 23:22:26;;;;;;;;;6.25;6.25;;;;;19.86;38.96;101251.38;5010076;28;45713;-46
2023/04/30 23:24:51;;;;;;;;;6.75;6.50;;;;;19.85;39.19;101250.47;5016111;28;45155;-44
2023/04/30 23:27:17;;;;;;;;;9.50;6.00;;;;;19.86;38.84;101251.38;5002569;28;45293;-45
2023/04/30 23:29:43;;;;;;;;;6.00;6.00;;;;;19.84;39.22;101247.94;5022554;28;44771;-46
2023/04/30 23:32:08;;;;;;;;;7.00;7.00;;;;;19.86;39.48;101243.50;5006457;28;46919;-52
2023/04/30 23:34:34;;;;;;;;;6.25;6.25;;;;;19.84;39.30;101238.28;4998335;28;45405;-39
2023/04/30 23:36:59;;;;;;;;;9.00;8.00;;;;;19.86;39.55;101233.81;4998584;28;45435;-39
2023/04/30 23:39:25;;;;;;;;;7.75;7.00;;;;;19.85;39.42;101236.50;5019690;28;45396;-44
2023/04/30 23:41:53;;;;;;;;;6.00;6.00;;;;;19.85;39.55;101234.69;5020624;28;45000;-43
2023/04/30 23:44:18;;;;;;;;;6.25;6.25;;;;;19.85;39.46;101239.13;5001374;28;45238;-40
2023/04/30 23:46:43;;;;;;;;;9.25;7.25;;;;;19.86;39.23;101240.88;4997635;28;45285;-45
2023/04/30 23:49:09;;;;;;;;;7.50;7.50;;;;;19.84;38.92;101237.41;4999022;28;45284;-42
2023/04/30 23:51:35;;;;;;;;;7.50;7.00;;;;;19.86;39.31;101240.88;4997623;28;46143;-42
2023/04/30 23:54:00;;;;;;;;;7.50;7.50;;;;;19.85;39.43;101239.97;4997367;28;45678;-41
2023/04/30 23:56:26;;;;;;;;;7.75;5.00;;;;;19.85;39.44;101239.13;4997992;28;45861;-46
2023/04/30 23:58:51;;;;;;;;;9.50;7.50;;;;;19.84;39.58;101234.78;4997946;28;45332;-43
